Bogota, Colombia
Current Conditions -  °F | °C
As of 11:00 PM on Thursday 18 Dec 2014 (Local Time) from SKBO Reporting Station
Haze Haze  
Wind Chill: 52°   Ceiling: Unl
Heat Index: 52°   Visibility: 2.5mi
Dew Point: 52°   Wind: 2mph
Humidity: 100%   Direction: NA
Pressure: 30.34"   Gusts: NA
Location:  4.63°N, 74.09°W
Report Text: SKBO 190400Z VRB02KT 4000 BR SCT017 11/11 A3034
Loading
Personal Weather Stations






























Interactive Weather Map New forecast layout! Learn more

10-Day Weather Forecast

Advertisements
Track Severe Weather on mobile